메인 페이지
METAR-TAF:

METAR-TAF

공항 :

반다라나이케 국제공항

콜롬보, 스리랑카

위도: 07-10N, 경도: 079-53E, 고도: 8m

현재 날씨관측

예보는 42분 전, 22:10시(UTC)에 발표되었습니다.
남남서7kt
온도 27°C
습도 100%
기압 1008 hPa
시정 10km 이상
고도 1600ft 상공 구름 보통

METAR: VCBI 282210Z 21007KT 9999 SCT016 27/27 Q1008 NOSIG

시각: 04:22 (22:52 UTC)

예보

예보는 5 시간 52분 전, 17:00시(UTC)에 발표되었습니다.
예보 대상 시간: 28일 18시부터 29일 24시까지 (UTC)
남남서10kt
시정 10km 이상
고도 1700ft 상공 구름 보통
확률 30% :
일시적
29일 00시부터 29일 06시까지 (UTC)
남남서10kt, 순간 최대 풍속 20kt
시정: 7000m
고도 1200ft 상공 구름 조금
고도 1600ft 상공 구름 많음
고도 2000ft 상공 구름 조금, 적란운.
약한소나기

TAF: VCBI 281700Z 2818/2924 20010KT 9999 SCT017 TX31/2907Z TN26/2900Z PROB30 TEMPO 2900/2906 20010G20KT 7000 -SHRA FEW012 BKN016 FEW020CB

4,000개 이상의 공항 관측 자료 및 예보 (METAR 및 TAF 보고).

지도상에서 검색 가능한 기상관측소가 노란 점과 빨간 점으로 표시되어 있습니다.

기상관측소 명을 보려면 표시 위로 마우스를 이동하세요.

날씨 관측과 예보를 보려면 클릭하세요.

지도 변경 : 확대하려면 엑스 표시가 있는 녹색 버튼, 축소하려면 빼기 표시가 있는 녹색 버튼, 다음 페이지의 지도를 보려면 녹색 화살표를 클릭하세요.


METAR-TAF: